createdAt,value
2018-03-28T00:01:10.989Z,28.00
2018-03-28T00:03:38.479Z,31.23
2018-03-28T00:06:05.952Z,27.67
2018-03-28T00:08:33.449Z,29.05
2018-03-28T00:11:00.913Z,27.20
2018-03-28T00:13:28.394Z,27.37
2018-03-28T00:15:55.972Z,26.15
2018-03-28T00:18:23.409Z,25.77
2018-03-28T00:20:50.869Z,26.80
2018-03-28T00:23:18.324Z,26.30
2018-03-28T00:25:45.797Z,26.80
2018-03-28T00:28:13.224Z,27.17
2018-03-28T00:30:40.688Z,28.98
2018-03-28T00:33:08.134Z,25.08
2018-03-28T00:35:35.626Z,27.10
2018-03-28T00:38:03.056Z,29.45
2018-03-28T00:40:30.663Z,29.15
2018-03-28T00:42:58.932Z,27.75
2018-03-28T00:45:26.396Z,27.92
2018-03-28T00:47:54.608Z,29.00
2018-03-28T00:50:22.065Z,28.55
2018-03-28T00:52:49.519Z,29.42
2018-03-28T00:55:16.959Z,27.23
2018-03-28T00:57:44.484Z,30.30
2018-03-28T01:00:11.940Z,29.77
2018-03-28T01:02:40.172Z,30.75
2018-03-28T01:05:07.632Z,28.12
2018-03-28T01:07:35.100Z,28.87
2018-03-28T01:10:02.557Z,27.23
2018-03-28T01:12:30.048Z,30.85
2018-03-28T01:14:58.292Z,27.62
2018-03-28T01:17:25.759Z,29.77
2018-03-28T01:19:53.199Z,29.00
2018-03-28T01:22:20.664Z,27.48
2018-03-28T01:24:48.120Z,29.55
2018-03-28T01:27:15.580Z,30.05
2018-03-28T01:29:43.031Z,29.80
2018-03-28T01:32:10.488Z,29.40
2018-03-28T01:34:37.947Z,29.00
2018-03-28T01:37:05.850Z,31.48
2018-03-28T01:39:34.044Z,31.02
2018-03-28T01:42:01.489Z,33.22
2018-03-28T01:44:29.007Z,31.37
2018-03-28T01:46:56.456Z,30.88
2018-03-28T01:49:23.937Z,31.50
2018-03-28T01:51:52.224Z,31.80
2018-03-28T01:54:19.772Z,32.55
2018-03-28T01:56:47.994Z,31.05
2018-03-28T01:59:15.457Z,31.23
2018-03-28T02:01:42.939Z,31.58
2018-03-28T02:04:10.551Z,32.13
2018-03-28T02:06:37.991Z,29.75
2018-03-28T02:09:06.349Z,29.70
2018-03-28T02:11:34.562Z,30.42
2018-03-28T02:14:02.308Z,31.02
2018-03-28T02:16:29.779Z,32.72
2018-03-28T02:18:57.225Z,30.15
2018-03-28T02:21:24.708Z,29.80
2018-03-28T02:23:52.928Z,29.37
2018-03-28T02:26:21.156Z,29.92
2018-03-28T02:28:48.625Z,28.95
2018-03-28T02:31:16.088Z,28.83
2018-03-28T02:33:43.524Z,29.60
2018-03-28T02:36:11.007Z,28.50
2018-03-28T02:38:38.435Z,29.15
2018-03-28T02:41:05.910Z,27.98
2018-03-28T02:43:33.386Z,29.00
2018-03-28T02:46:01.654Z,30.00
2018-03-28T02:48:29.113Z,27.77
2018-03-28T02:50:56.569Z,28.65
2018-03-28T02:53:24.023Z,29.37
2018-03-28T02:55:51.488Z,30.62
2018-03-28T02:58:19.708Z,29.45
2018-03-28T03:00:47.178Z,29.27
2018-03-28T03:03:14.627Z,29.23
2018-03-28T03:05:42.119Z,28.75
2018-03-28T03:08:09.576Z,28.85
2018-03-28T03:10:37.021Z,30.10
2018-03-28T03:13:04.491Z,29.45
2018-03-28T03:15:31.927Z,27.20
2018-03-28T03:17:59.407Z,25.77
2018-03-28T03:20:27.624Z,28.10
2018-03-28T03:22:55.083Z,28.73
2018-03-28T03:25:22.536Z,29.25
2018-03-28T03:27:50.588Z,28.10
2018-03-28T03:30:18.021Z,28.52
2018-03-28T03:32:46.256Z,26.80
2018-03-28T03:35:13.703Z,27.00
2018-03-28T03:37:41.193Z,27.35
2018-03-28T03:40:08.672Z,29.73
2018-03-28T03:42:36.931Z,25.95
2018-03-28T03:45:04.368Z,26.40
2018-03-28T03:47:31.832Z,26.40
2018-03-28T03:49:59.277Z,25.33
2018-03-28T03:52:27.504Z,25.20
2018-03-28T03:54:54.979Z,25.37
2018-03-28T03:57:22.496Z,26.87
2018-03-28T03:59:50.733Z,25.42
2018-03-28T04:02:18.162Z,24.42
2018-03-28T04:04:45.638Z,24.67
2018-03-28T04:07:13.837Z,24.30
2018-03-28T04:09:41.324Z,23.40
2018-03-28T04:12:09.575Z,23.83
2018-03-28T04:14:37.123Z,23.87
2018-03-28T04:17:04.576Z,22.73
2018-03-28T04:19:32.032Z,25.33
2018-03-28T04:21:59.617Z,23.83
2018-03-28T04:24:28.534Z,23.92
2018-03-28T04:26:56.101Z,25.85
2018-03-28T04:29:23.603Z,24.87
2018-03-28T04:31:52.351Z,27.25
2018-03-28T04:34:19.890Z,27.83
2018-03-28T04:36:47.332Z,25.83
2018-03-28T04:39:16.184Z,25.90
2018-03-28T04:41:43.715Z,25.50
2018-03-28T04:44:11.172Z,22.92
2018-03-28T04:46:38.700Z,25.98
2018-03-28T04:49:06.154Z,24.25
2018-03-28T04:51:33.612Z,24.02
2018-03-28T04:54:01.083Z,24.08
2018-03-28T04:56:28.571Z,22.17
2018-03-28T04:58:56.046Z,23.90
2018-03-28T05:01:23.520Z,22.55
2018-03-28T05:03:51.738Z,23.95
2018-03-28T05:06:19.191Z,21.67
2018-03-28T05:08:46.652Z,22.05
2018-03-28T05:11:14.116Z,22.35
2018-03-28T05:13:41.672Z,23.10
2018-03-28T05:16:09.244Z,21.52
2018-03-28T05:18:36.700Z,21.20
2018-03-28T05:21:04.170Z,19.05
2018-03-28T05:23:31.643Z,23.33
2018-03-28T05:25:59.896Z,22.27
2018-03-28T05:28:27.389Z,21.15
2018-03-28T05:30:54.850Z,19.50
2018-03-28T05:33:22.929Z,19.15
2018-03-28T05:35:50.424Z,21.60
2018-03-28T05:38:18.608Z,20.25
2018-03-28T05:40:46.652Z,19.67
2018-03-28T05:43:14.144Z,19.25
2018-03-28T05:45:42.097Z,20.55
2018-03-28T05:48:09.565Z,18.40
2018-03-28T05:50:37.073Z,18.52
2018-03-28T05:53:04.552Z,17.35
2018-03-28T05:55:32.016Z,17.90
2018-03-28T05:57:59.495Z,17.20
2018-03-28T06:00:26.926Z,18.27
2018-03-28T06:02:54.409Z,16.95
2018-03-28T06:05:22.632Z,17.60
2018-03-28T06:07:50.090Z,15.75
2018-03-28T06:10:17.544Z,14.20
2018-03-28T06:12:44.990Z,13.73
2018-03-28T06:15:12.454Z,13.65
2018-03-28T06:17:39.912Z,12.43
2018-03-28T06:20:07.362Z,12.90
2018-03-28T06:22:34.817Z,12.60
2018-03-28T06:25:02.330Z,11.73
2018-03-28T06:27:29.777Z,12.35
2018-03-28T06:29:57.403Z,12.35
2018-03-28T06:32:24.881Z,11.52
2018-03-28T06:34:52.342Z,11.40
2018-03-28T06:37:20.577Z,9.60
2018-03-28T06:39:48.044Z,9.95
2018-03-28T06:42:15.470Z,9.52
2018-03-28T06:44:42.954Z,9.95
2018-03-28T06:47:10.386Z,9.65
2018-03-28T06:49:37.837Z,9.38
2018-03-28T06:52:06.103Z,8.77
2018-03-28T06:54:34.357Z,8.43
2018-03-28T06:57:01.835Z,7.90
2018-03-28T06:59:29.269Z,7.78
2018-03-28T07:01:56.724Z,7.68
2018-03-28T07:04:24.192Z,8.48
2018-03-28T07:06:51.639Z,8.20
2018-03-28T07:09:19.089Z,7.95
2018-03-28T07:11:46.536Z,7.87
2018-03-28T07:14:13.990Z,7.10
2018-03-28T07:16:41.448Z,7.18
2018-03-28T07:19:08.905Z,6.28
2018-03-28T07:21:36.358Z,6.25
2018-03-28T07:24:03.812Z,6.70
2018-03-28T07:26:31.282Z,6.28
2018-03-28T07:28:58.764Z,6.12
2018-03-28T07:31:27.004Z,5.78
2018-03-28T07:33:54.577Z,6.20
2018-03-28T07:36:22.010Z,6.28
2018-03-28T07:38:49.465Z,7.10
2018-03-28T07:41:16.938Z,6.65
2018-03-28T07:43:44.390Z,5.90
2018-03-28T07:46:11.924Z,6.05
2018-03-28T07:48:39.388Z,6.35
2018-03-28T07:51:06.824Z,5.55
2018-03-28T07:53:34.795Z,5.22
2018-03-28T07:56:02.225Z,6.18
2018-03-28T07:58:29.698Z,7.35
2018-03-28T08:00:57.140Z,5.12
2018-03-28T08:03:24.723Z,5.40
2018-03-28T08:05:52.143Z,6.15
2018-03-28T08:08:20.377Z,6.15
2018-03-28T08:10:47.807Z,5.70
2018-03-28T08:13:15.262Z,5.43
2018-03-28T08:15:42.789Z,4.95
2018-03-28T08:18:11.040Z,5.47
2018-03-28T08:20:38.609Z,5.32
2018-03-28T08:23:06.803Z,5.18
2018-03-28T08:25:34.263Z,5.75
2018-03-28T08:28:01.700Z,4.90
2018-03-28T08:30:29.916Z,5.40
2018-03-28T08:32:57.354Z,4.55
2018-03-28T08:35:24.808Z,5.18
2018-03-28T08:37:52.378Z,6.18
2018-03-28T08:40:19.910Z,5.70
2018-03-28T08:42:47.345Z,6.00
2018-03-28T08:45:15.577Z,4.82
2018-03-28T08:47:43.013Z,5.78
2018-03-28T08:50:10.467Z,5.53
2018-03-28T08:52:37.992Z,6.78
2018-03-28T08:55:06.229Z,5.57
2018-03-28T08:57:33.673Z,6.20
2018-03-28T09:00:01.123Z,7.15
2018-03-28T09:02:28.569Z,5.60
2018-03-28T09:04:56.052Z,6.95
2018-03-28T09:07:23.511Z,6.55
2018-03-28T09:09:50.940Z,6.25
2018-03-28T09:12:18.406Z,5.75
2018-03-28T09:14:45.846Z,5.90
2018-03-28T09:17:13.330Z,5.93
2018-03-28T09:19:40.790Z,6.95
2018-03-28T09:22:08.275Z,6.65
2018-03-28T09:24:35.732Z,7.18
2018-03-28T09:27:04.015Z,7.25
2018-03-28T09:29:31.433Z,6.55
2018-03-28T09:31:59.728Z,6.00
2018-03-28T09:34:27.170Z,7.05
2018-03-28T09:36:54.714Z,5.82
2018-03-28T09:39:22.155Z,6.35
2018-03-28T09:41:49.648Z,6.10
2018-03-28T09:44:17.844Z,6.65
2018-03-28T09:46:46.059Z,7.28
2018-03-28T09:49:13.523Z,7.05
2018-03-28T09:51:40.966Z,6.90
2018-03-28T09:54:08.576Z,7.32
2018-03-28T09:56:36.013Z,6.90
2018-03-28T09:59:03.471Z,7.47
2018-03-28T10:01:30.913Z,6.40
2018-03-28T10:04:03.960Z,7.72
2018-03-28T10:06:31.430Z,7.12
2018-03-28T10:08:59.668Z,7.47
2018-03-28T10:11:28.367Z,6.72
2018-03-28T10:13:56.587Z,6.60
2018-03-28T10:16:24.089Z,7.80
2018-03-28T10:18:52.065Z,7.72
2018-03-28T10:21:19.498Z,7.53
2018-03-28T10:23:46.986Z,8.35
2018-03-28T10:26:14.432Z,7.45
2018-03-28T10:28:42.704Z,6.70
2018-03-28T10:31:10.951Z,7.03
2018-03-28T10:33:38.547Z,7.75
2018-03-28T10:36:06.839Z,7.93
2018-03-28T10:38:34.292Z,7.03
2018-03-28T10:41:01.764Z,8.50
2018-03-28T10:43:29.259Z,6.82
2018-03-28T10:45:56.853Z,6.95
2018-03-28T10:48:25.071Z,6.70
2018-03-28T10:50:52.567Z,8.52
2018-03-28T10:53:20.804Z,7.03
2018-03-28T10:55:49.051Z,7.60
2018-03-28T10:58:16.491Z,7.00
2018-03-28T11:00:43.984Z,8.00
2018-03-28T11:03:11.440Z,6.78
2018-03-28T11:05:38.912Z,7.70
2018-03-28T11:08:06.381Z,7.60
2018-03-28T11:10:33.855Z,8.13
2018-03-28T11:13:02.087Z,8.23
2018-03-28T11:15:29.600Z,6.95
2018-03-28T11:17:58.362Z,7.12
2018-03-28T11:20:25.862Z,7.57
2018-03-28T11:22:53.302Z,7.47
2018-03-28T11:25:20.781Z,7.32
2018-03-28T11:27:48.284Z,7.80
2018-03-28T11:30:15.726Z,7.75
2018-03-28T11:32:43.213Z,7.25
2018-03-28T11:35:11.440Z,7.70
2018-03-28T11:37:38.933Z,8.07
2018-03-28T11:40:06.370Z,8.00
2018-03-28T11:42:33.876Z,7.30
2018-03-28T11:45:01.347Z,8.13
2018-03-28T11:47:28.820Z,7.57
2018-03-28T11:49:56.305Z,7.03
2018-03-28T11:52:23.744Z,7.05
2018-03-28T11:54:51.233Z,7.20
2018-03-28T11:57:19.472Z,7.35
2018-03-28T11:59:46.940Z,7.22
2018-03-28T12:02:19.178Z,7.15
2018-03-28T12:04:46.652Z,7.45
2018-03-28T12:07:14.100Z,6.68
2018-03-28T12:09:41.567Z,7.72
2018-03-28T12:12:09.014Z,7.22
2018-03-28T12:14:36.486Z,7.07
2018-03-28T12:17:03.940Z,6.93
2018-03-28T12:19:31.414Z,8.25
2018-03-28T12:21:59.662Z,7.80
2018-03-28T12:24:27.121Z,7.50
2018-03-28T12:26:54.613Z,8.10
2018-03-28T12:29:23.111Z,7.82
2018-03-28T12:31:50.664Z,7.40
2018-03-28T12:34:18.980Z,6.80
2018-03-28T12:36:46.551Z,7.35
2018-03-28T12:39:14.006Z,8.73
2018-03-28T12:41:41.480Z,8.43
2018-03-28T12:44:08.954Z,9.00
2018-03-28T12:46:37.222Z,9.20
2018-03-28T12:49:05.462Z,8.80
2018-03-28T12:51:32.948Z,9.95
2018-03-28T12:54:00.400Z,9.57
2018-03-28T12:56:28.641Z,9.75
2018-03-28T12:58:56.111Z,7.83
2018-03-28T13:01:23.586Z,7.72
2018-03-28T13:03:51.038Z,8.20
2018-03-28T13:06:18.632Z,6.60
2018-03-28T13:08:46.096Z,6.43
2018-03-28T13:11:13.578Z,5.72
2018-03-28T13:13:41.032Z,6.03
2018-03-28T13:16:08.499Z,6.07
2018-03-28T13:18:35.957Z,6.05
2018-03-28T13:21:03.428Z,6.90
2018-03-28T13:23:30.900Z,6.75
2018-03-28T13:25:59.112Z,6.78
2018-03-28T13:28:26.590Z,5.78
2018-03-28T13:30:54.026Z,7.05
2018-03-28T13:33:21.552Z,6.12
2018-03-28T13:35:48.959Z,6.50
2018-03-28T13:38:16.436Z,6.70
2018-03-28T13:40:44.422Z,6.75
2018-03-28T13:43:11.889Z,7.25
2018-03-28T13:45:39.331Z,6.05
2018-03-28T13:48:06.782Z,6.55
2018-03-28T13:50:34.364Z,6.00
2018-03-28T13:53:02.618Z,6.30
2018-03-28T13:55:30.051Z,6.10
2018-03-28T13:57:57.531Z,6.70
2018-03-28T14:00:24.970Z,6.22
2018-03-28T14:02:52.429Z,6.90
2018-03-28T14:05:19.911Z,6.70
2018-03-28T14:07:48.188Z,7.62
2018-03-28T14:10:16.440Z,7.12
2018-03-28T14:12:43.890Z,7.07
2018-03-28T14:15:11.374Z,6.90
2018-03-28T14:17:38.911Z,6.35
2018-03-28T14:20:06.506Z,6.60
2018-03-28T14:22:34.736Z,6.30
2018-03-28T14:25:02.201Z,6.68
2018-03-28T14:27:29.637Z,5.65
2018-03-28T14:29:57.107Z,5.97
2018-03-28T14:32:24.552Z,5.90
2018-03-28T14:34:52.048Z,6.45
2018-03-28T14:37:19.493Z,5.93
2018-03-28T14:39:47.715Z,5.82
2018-03-28T14:42:15.182Z,6.25
2018-03-28T14:44:42.638Z,5.87
2018-03-28T14:47:10.094Z,5.93
2018-03-28T14:49:37.556Z,5.65
2018-03-28T14:52:05.016Z,4.68
2018-03-28T14:54:32.459Z,4.70
2018-03-28T14:56:59.914Z,4.82
2018-03-28T14:59:27.387Z,4.80
2018-03-28T15:01:54.877Z,6.15
2018-03-28T15:04:22.311Z,5.28
2018-03-28T15:06:49.793Z,5.35
2018-03-28T15:09:17.233Z,5.68
2018-03-28T15:11:44.683Z,5.07
2018-03-28T15:14:12.195Z,5.65
2018-03-28T15:16:39.664Z,6.30
2018-03-28T15:19:07.101Z,5.97
2018-03-28T15:21:34.570Z,5.80
2018-03-28T15:24:02.024Z,6.70
2018-03-28T15:26:29.468Z,6.75
2018-03-28T15:28:57.038Z,6.53
2018-03-28T15:31:24.472Z,6.68
2018-03-28T15:33:51.944Z,7.15
2018-03-28T15:36:19.388Z,7.00
2018-03-28T15:38:46.939Z,6.87
2018-03-28T15:41:14.385Z,6.75
2018-03-28T15:43:42.644Z,7.47
2018-03-28T15:46:10.162Z,6.05
2018-03-28T15:48:37.596Z,6.30
2018-03-28T15:51:05.045Z,5.80
2018-03-28T15:53:32.562Z,6.03
2018-03-28T15:55:59.984Z,5.28
2018-03-28T15:58:27.432Z,5.43
2018-03-28T16:00:54.881Z,6.57
2018-03-28T16:03:22.329Z,5.55
2018-03-28T16:05:49.789Z,7.20
2018-03-28T16:08:17.262Z,7.43
2018-03-28T16:10:44.700Z,7.20
2018-03-28T16:13:12.160Z,7.87
2018-03-28T16:15:39.634Z,8.40
2018-03-28T16:18:07.080Z,7.20
2018-03-28T16:20:34.545Z,8.07
2018-03-28T16:23:01.988Z,8.52
2018-03-28T16:25:29.449Z,8.32
2018-03-28T16:27:56.893Z,6.37
2018-03-28T16:30:24.463Z,6.37
2018-03-28T16:32:51.900Z,5.82
2018-03-28T16:35:19.364Z,6.18
2018-03-28T16:37:46.804Z,5.95
2018-03-28T16:40:14.244Z,5.97
2018-03-28T16:42:41.705Z,6.97
2018-03-28T16:45:10.132Z,7.37
2018-03-28T16:47:37.583Z,7.10
2018-03-28T16:50:05.761Z,7.75
2018-03-28T16:52:33.219Z,7.47
2018-03-28T16:55:00.672Z,7.53
2018-03-28T16:57:28.119Z,8.60
2018-03-28T16:59:55.584Z,9.13
2018-03-28T17:02:23.053Z,8.35
2018-03-28T17:04:50.559Z,8.82
2018-03-28T17:07:17.950Z,8.13
2018-03-28T17:09:46.240Z,8.63
2018-03-28T17:12:13.703Z,9.00
2018-03-28T17:14:41.181Z,9.18
2018-03-28T17:17:08.631Z,9.15
2018-03-28T17:19:36.870Z,10.25
2018-03-28T17:22:04.332Z,10.77
2018-03-28T17:24:31.811Z,9.35
2018-03-28T17:26:59.262Z,10.40
2018-03-28T17:29:26.763Z,10.23
2018-03-28T17:31:54.199Z,10.35
2018-03-28T17:34:22.435Z,11.60
2018-03-28T17:36:49.906Z,11.05
2018-03-28T17:39:17.383Z,12.98
2018-03-28T17:41:45.649Z,12.90
2018-03-28T17:44:13.065Z,13.15
2018-03-28T17:46:40.652Z,14.27
2018-03-28T17:49:08.093Z,17.90
2018-03-28T17:51:35.544Z,13.62
2018-03-28T17:54:03.002Z,14.23
2018-03-28T17:56:30.457Z,14.63
2018-03-28T17:58:57.907Z,14.30
2018-03-28T18:01:25.372Z,14.20
2018-03-28T18:03:52.815Z,14.45
2018-03-28T18:06:20.286Z,13.13
2018-03-28T18:08:47.738Z,13.75
2018-03-28T18:11:15.200Z,12.55
2018-03-28T18:13:42.636Z,13.80
2018-03-28T18:16:10.132Z,14.00
2018-03-28T18:18:37.557Z,12.70
2018-03-28T18:21:05.045Z,12.35
2018-03-28T18:23:32.567Z,13.02
2018-03-28T18:26:00.037Z,13.27
2018-03-28T18:28:28.265Z,12.40
2018-03-28T18:30:55.732Z,13.20
2018-03-28T18:33:23.186Z,12.65
2018-03-28T18:35:50.668Z,12.95
2018-03-28T18:38:18.225Z,9.98
2018-03-28T18:40:45.663Z,11.00
2018-03-28T18:43:13.121Z,10.98
2018-03-28T18:45:40.647Z,11.48
2018-03-28T18:48:08.207Z,10.32
2018-03-28T18:50:35.704Z,10.98
2018-03-28T18:53:03.173Z,9.95
2018-03-28T18:55:30.625Z,10.55
2018-03-28T18:57:58.098Z,8.70
2018-03-28T19:00:25.534Z,9.75
2018-03-28T19:02:52.999Z,9.80
2018-03-28T19:05:20.464Z,7.65
2018-03-28T19:07:47.927Z,9.35
2018-03-28T19:10:15.396Z,9.40
2018-03-28T19:12:42.884Z,9.20
2018-03-28T19:15:10.387Z,9.35
2018-03-28T19:17:37.840Z,8.90
2018-03-28T19:20:05.308Z,9.90
2018-03-28T19:22:32.761Z,10.63
2018-03-28T19:25:00.309Z,10.90
2018-03-28T19:27:27.757Z,10.35
2018-03-28T19:29:55.212Z,10.43
2018-03-28T19:32:22.670Z,10.73
2018-03-28T19:34:50.120Z,10.43
2018-03-28T19:37:17.604Z,9.35
2018-03-28T19:39:45.073Z,9.27
2018-03-28T19:42:13.304Z,9.57
2018-03-28T19:44:40.778Z,9.45
2018-03-28T19:47:08.728Z,8.80
2018-03-28T19:49:36.295Z,9.40
2018-03-28T19:52:04.526Z,8.63
2018-03-28T19:54:32.738Z,7.57
2018-03-28T19:57:00.195Z,8.48
2018-03-28T19:59:27.662Z,7.90
2018-03-28T20:01:55.127Z,7.85
2018-03-28T20:04:22.568Z,7.40
2018-03-28T20:06:50.049Z,8.18
2018-03-28T20:09:17.516Z,7.68
2018-03-28T20:11:44.994Z,8.40
2018-03-28T20:14:13.211Z,6.78
2018-03-28T20:16:40.870Z,7.20
2018-03-28T20:19:08.320Z,6.57
2018-03-28T20:21:35.787Z,6.25
2018-03-28T20:24:03.244Z,7.00
2018-03-28T20:26:30.742Z,6.22
2018-03-28T20:28:59.020Z,6.35
2018-03-28T20:31:27.291Z,5.72
2018-03-28T20:33:54.714Z,6.55
2018-03-28T20:36:22.233Z,8.40
2018-03-28T20:38:49.652Z,7.55
2018-03-28T20:41:17.115Z,7.78
2018-03-28T20:43:44.730Z,6.47
2018-03-28T20:46:12.180Z,7.10
2018-03-28T20:48:40.347Z,7.82
2018-03-28T20:51:07.819Z,5.40
2018-03-28T20:53:35.272Z,4.35
2018-03-28T20:56:02.772Z,4.18
2018-03-28T20:58:31.015Z,4.18
2018-03-28T21:00:58.479Z,3.75
2018-03-28T21:03:25.948Z,3.10
2018-03-28T21:05:53.449Z,2.58
2018-03-28T21:08:21.605Z,2.08
2018-03-28T21:10:49.827Z,2.22
2018-03-28T21:13:18.060Z,2.05
2018-03-28T21:15:45.527Z,2.30
2018-03-28T21:18:12.976Z,1.65
2018-03-28T21:20:40.453Z,1.80
2018-03-28T21:23:07.909Z,1.75
2018-03-28T21:25:35.357Z,1.92
2018-03-28T21:28:02.804Z,1.60
2018-03-28T21:30:30.301Z,2.05
2018-03-28T21:32:57.740Z,2.00
2018-03-28T21:35:25.212Z,1.80
2018-03-28T21:37:52.632Z,1.73
2018-03-28T21:40:20.086Z,1.70
2018-03-28T21:42:47.521Z,1.85
2018-03-28T21:45:16.211Z,1.58
2018-03-28T21:47:43.643Z,1.60
2018-03-28T21:50:11.858Z,1.25
2018-03-28T21:52:39.296Z,1.73
2018-03-28T21:55:06.747Z,1.80
2018-03-28T21:57:34.967Z,1.62
2018-03-28T22:00:02.425Z,2.10
2018-03-28T22:02:29.891Z,1.85
2018-03-28T22:04:57.335Z,2.03
2018-03-28T22:07:24.771Z,2.00
2018-03-28T22:09:52.220Z,1.92
2018-03-28T22:12:19.813Z,2.30
2018-03-28T22:14:47.356Z,1.70
2018-03-28T22:17:14.792Z,2.53
2018-03-28T22:19:42.245Z,2.42
2018-03-28T22:22:09.699Z,1.92
2018-03-28T22:24:37.140Z,2.25
2018-03-28T22:27:05.378Z,2.17
2018-03-28T22:29:32.901Z,2.30
2018-03-28T22:32:00.363Z,1.80
2018-03-28T22:34:27.816Z,1.65
2018-03-28T22:36:55.284Z,1.90
2018-03-28T22:39:22.751Z,1.85
2018-03-28T22:41:50.284Z,1.95
2018-03-28T22:44:17.712Z,2.80
2018-03-28T22:46:45.176Z,2.08
2018-03-28T22:49:13.326Z,2.53
2018-03-28T22:51:40.787Z,2.60
2018-03-28T22:54:09.029Z,2.53
2018-03-28T22:56:37.147Z,2.83
2018-03-28T22:59:05.374Z,3.55
2018-03-28T23:01:32.814Z,3.40
2018-03-28T23:04:00.284Z,3.40
2018-03-28T23:06:27.720Z,3.53
2018-03-28T23:08:55.175Z,4.00
2018-03-28T23:11:26.725Z,3.20
2018-03-28T23:13:54.191Z,4.20
2018-03-28T23:16:21.641Z,4.25
2018-03-28T23:18:49.115Z,3.45
2018-03-28T23:21:16.545Z,4.45
2018-03-28T23:23:44.051Z,4.53
2018-03-28T23:26:11.539Z,3.70
2018-03-28T23:28:39.139Z,4.20
2018-03-28T23:31:06.597Z,4.57
2018-03-28T23:33:34.105Z,4.78
2018-03-28T23:36:01.599Z,4.68
2018-03-28T23:38:29.058Z,4.10
2018-03-28T23:40:56.504Z,4.30
2018-03-28T23:43:23.969Z,5.18
2018-03-28T23:45:51.460Z,4.85
2018-03-28T23:48:18.892Z,4.32
2018-03-28T23:50:46.367Z,5.47
2018-03-28T23:53:13.800Z,5.07
2018-03-28T23:55:41.268Z,4.32
2018-03-28T23:58:08.721Z,5.22
